createdAt,value
2022-12-08T00:02:05.365Z,4.38
2022-12-08T00:04:53.690Z,2.92
2022-12-08T00:07:39.326Z,3.95
2022-12-08T00:10:32.285Z,3.55
2022-12-08T00:12:57.328Z,3.50
2022-12-08T00:15:25.819Z,3.65
2022-12-08T00:17:55.440Z,3.75
2022-12-08T00:20:23.658Z,3.30
2022-12-08T00:22:51.945Z,3.63
2022-12-08T00:25:20.148Z,3.80
2022-12-08T00:27:48.355Z,3.15
2022-12-08T00:30:16.841Z,3.53
2022-12-08T00:32:45.056Z,2.38
2022-12-08T00:35:15.137Z,3.38
2022-12-08T00:37:43.418Z,2.60
2022-12-08T00:40:12.121Z,3.38
2022-12-08T00:42:40.307Z,4.35
2022-12-08T00:45:09.064Z,3.88
2022-12-08T00:47:37.563Z,3.38
2022-12-08T00:50:06.759Z,2.90
2022-12-08T00:52:37.014Z,3.10
2022-12-08T00:55:06.130Z,3.30
2022-12-08T00:57:34.393Z,3.20
2022-12-08T01:00:03.271Z,2.92
2022-12-08T01:02:33.914Z,2.83
2022-12-08T01:05:02.372Z,2.60
2022-12-08T01:07:30.727Z,2.63
2022-12-08T01:10:00.377Z,3.45
2022-12-08T01:12:30.460Z,3.67
2022-12-08T01:15:02.503Z,4.40
2022-12-08T01:17:31.404Z,3.47
2022-12-08T01:19:59.718Z,5.20
2022-12-08T01:22:27.937Z,3.33
2022-12-08T01:24:56.433Z,3.70
2022-12-08T01:27:26.137Z,4.28
2022-12-08T01:29:55.647Z,3.10
2022-12-08T01:32:24.158Z,4.22
2022-12-08T01:34:52.659Z,5.13
2022-12-08T01:37:20.922Z,4.00
2022-12-08T01:39:49.127Z,3.20
2022-12-08T01:42:22.198Z,3.63
2022-12-08T01:45:03.791Z,3.92
2022-12-08T01:47:39.494Z,3.65
2022-12-08T01:50:12.781Z,2.03
2022-12-08T01:52:45.439Z,2.88
2022-12-08T01:55:18.831Z,3.42
2022-12-08T01:57:50.875Z,2.92
2022-12-08T02:00:23.170Z,2.90
2022-12-08T02:02:56.793Z,3.40
2022-12-08T02:05:28.767Z,2.63
2022-12-08T02:07:58.641Z,2.90
2022-12-08T02:10:31.628Z,3.00
2022-12-08T02:13:01.739Z,3.28
2022-12-08T02:15:38.731Z,3.05
2022-12-08T02:18:24.214Z,3.25
2022-12-08T02:20:59.546Z,2.38
2022-12-08T02:23:38.029Z,2.55
2022-12-08T02:26:30.159Z,2.65
2022-12-08T02:29:38.956Z,2.47
2022-12-08T02:32:29.621Z,3.10
2022-12-08T02:35:04.404Z,2.38
2022-12-08T02:37:37.371Z,4.03
2022-12-08T02:40:14.880Z,3.05
2022-12-08T02:42:47.388Z,2.97
2022-12-08T02:45:18.957Z,2.70
2022-12-08T02:47:48.045Z,3.00
2022-12-08T02:50:17.818Z,2.10
2022-12-08T02:52:47.437Z,2.35
2022-12-08T02:55:27.255Z,2.38
2022-12-08T02:58:30.808Z,2.78
2022-12-08T03:01:16.043Z,2.22
2022-12-08T03:03:53.188Z,4.00
2022-12-08T03:06:30.735Z,3.47
2022-12-08T03:09:05.190Z,2.38
2022-12-08T03:11:41.280Z,2.38
2022-12-08T03:14:13.662Z,3.10
2022-12-08T03:16:46.940Z,3.70
2022-12-08T03:19:20.305Z,1.75
2022-12-08T03:21:53.935Z,2.72
2022-12-08T03:24:24.410Z,2.42
2022-12-08T03:26:57.919Z,3.08
2022-12-08T03:29:26.620Z,2.30
2022-12-08T03:31:58.718Z,2.85
2022-12-08T03:34:30.125Z,2.53
2022-12-08T03:37:02.610Z,2.40
2022-12-08T03:39:31.042Z,2.85
2022-12-08T03:41:59.805Z,2.53
2022-12-08T03:44:28.160Z,2.63
2022-12-08T03:46:56.800Z,2.75
2022-12-08T03:49:25.030Z,2.60
2022-12-08T03:51:53.647Z,2.35
2022-12-08T03:54:24.384Z,2.30
2022-12-08T03:56:53.662Z,2.33
2022-12-08T03:59:21.892Z,2.35
2022-12-08T04:01:50.266Z,1.73
2022-12-08T04:04:19.107Z,2.35
2022-12-08T04:06:47.688Z,0.82
2022-12-08T04:09:16.020Z,1.38
2022-12-08T04:11:45.718Z,1.42
2022-12-08T04:14:14.040Z,1.58
2022-12-08T04:16:44.218Z,1.27
2022-12-08T04:19:12.751Z,0.98
2022-12-08T04:21:41.048Z,1.40
2022-12-08T04:24:10.213Z,1.52
2022-12-08T04:26:38.510Z,1.00
2022-12-08T04:29:08.158Z,1.55
2022-12-08T04:31:36.511Z,1.85
2022-12-08T04:34:04.965Z,1.55
2022-12-08T04:36:33.301Z,2.13
2022-12-08T04:39:01.861Z,2.55
2022-12-08T04:41:30.221Z,2.13
2022-12-08T04:43:58.847Z,1.90
2022-12-08T04:46:28.631Z,1.52
2022-12-08T04:48:57.052Z,1.70
2022-12-08T04:51:25.320Z,1.63
2022-12-08T04:53:53.602Z,2.20
2022-12-08T04:56:21.905Z,2.33
2022-12-08T04:58:50.200Z,4.72
2022-12-08T05:01:18.537Z,35.45
2022-12-08T05:03:48.299Z,35.80
2022-12-08T05:06:16.951Z,59.53
2022-12-08T05:08:45.565Z,28.98
2022-12-08T05:11:14.807Z,33.88
2022-12-08T05:13:43.064Z,21.23
2022-12-08T05:16:13.503Z,12.52
2022-12-08T05:18:43.256Z,12.10
2022-12-08T05:21:13.212Z,16.30
2022-12-08T05:23:41.544Z,26.60
2022-12-08T05:26:10.165Z,13.20
2022-12-08T05:28:41.703Z,24.77
2022-12-08T05:31:11.358Z,12.15
2022-12-08T05:33:39.756Z,25.77
2022-12-08T05:36:08.591Z,16.67
2022-12-08T05:38:38.452Z,30.30
2022-12-08T05:41:08.242Z,45.95
2022-12-08T05:43:38.091Z,47.13
2022-12-08T05:46:06.738Z,28.85
2022-12-08T05:48:35.644Z,29.50
2022-12-08T05:51:04.315Z,19.20
2022-12-08T05:53:32.653Z,36.28
2022-12-08T05:56:02.355Z,15.23
2022-12-08T05:58:30.648Z,7.88
2022-12-08T06:00:59.259Z,12.23
2022-12-08T06:03:28.633Z,9.73
2022-12-08T06:05:56.998Z,6.60
2022-12-08T06:08:25.883Z,5.00
2022-12-08T06:10:54.957Z,15.75
2022-12-08T06:13:25.164Z,7.60
2022-12-08T06:15:53.498Z,8.20
2022-12-08T06:18:21.859Z,5.75
2022-12-08T06:20:50.107Z,4.15
2022-12-08T06:23:18.456Z,3.70
2022-12-08T06:25:46.981Z,2.90
2022-12-08T06:28:15.599Z,3.55
2022-12-08T06:30:45.267Z,2.30
2022-12-08T06:33:13.579Z,2.03
2022-12-08T06:35:41.811Z,2.03
2022-12-08T06:38:10.551Z,1.40
2022-12-08T06:40:38.755Z,1.25
2022-12-08T06:43:07.025Z,1.05
2022-12-08T06:45:35.306Z,3.35
2022-12-08T06:48:05.225Z,9.38
2022-12-08T06:50:35.151Z,5.63
2022-12-08T06:53:05.720Z,10.68
2022-12-08T06:55:57.748Z,7.90
2022-12-08T06:58:23.127Z,9.43
2022-12-08T07:00:51.684Z,3.35
2022-12-08T07:03:21.498Z,1.42
2022-12-08T07:05:50.065Z,1.58
2022-12-08T07:08:18.462Z,2.78
2022-12-08T07:10:46.954Z,1.58
2022-12-08T07:13:15.287Z,1.15
2022-12-08T07:15:43.650Z,1.92
2022-12-08T07:18:11.902Z,0.70
2022-12-08T07:20:41.672Z,0.70
2022-12-08T07:23:10.193Z,1.25
2022-12-08T07:25:38.538Z,0.60
2022-12-08T07:28:11.698Z,1.33
2022-12-08T07:30:40.741Z,2.03
2022-12-08T07:33:09.070Z,1.10
2022-12-08T07:35:45.006Z,0.57
2022-12-08T07:38:18.786Z,1.30
2022-12-08T07:40:47.129Z,3.08
2022-12-08T07:43:15.715Z,1.75
2022-12-08T07:45:46.742Z,1.50
2022-12-08T07:48:15.888Z,1.05
2022-12-08T07:50:47.100Z,3.70
2022-12-08T07:53:15.930Z,1.80
2022-12-08T07:55:45.957Z,3.10
2022-12-08T07:58:15.797Z,2.60
2022-12-08T08:00:44.149Z,1.52
2022-12-08T08:03:13.417Z,1.40
2022-12-08T08:05:42.120Z,1.73
2022-12-08T08:08:10.765Z,1.67
2022-12-08T08:10:39.068Z,1.83
2022-12-08T08:13:09.787Z,1.85
2022-12-08T08:15:38.520Z,2.60
2022-12-08T08:18:06.976Z,2.40
2022-12-08T08:20:35.586Z,3.75
2022-12-08T08:23:03.913Z,4.70
2022-12-08T08:25:32.337Z,3.03
2022-12-08T08:28:00.627Z,9.27
2022-12-08T08:30:30.396Z,6.60
2022-12-08T08:32:58.647Z,6.57
2022-12-08T08:35:26.947Z,4.78
2022-12-08T08:37:55.460Z,10.52
2022-12-08T08:40:24.184Z,6.13
2022-12-08T08:42:52.536Z,5.30
2022-12-08T08:45:20.852Z,7.07
2022-12-08T08:47:50.500Z,6.50
2022-12-08T08:50:18.808Z,8.65
2022-12-08T08:52:47.074Z,2.03
2022-12-08T08:55:15.639Z,1.77
2022-12-08T08:57:44.055Z,1.40
2022-12-08T09:00:13.565Z,1.50
2022-12-08T09:02:42.124Z,1.65
2022-12-08T09:05:13.478Z,1.58
2022-12-08T09:07:41.810Z,1.77
2022-12-08T09:10:11.235Z,1.35
2022-12-08T09:12:39.553Z,1.95
2022-12-08T09:15:08.721Z,2.00
2022-12-08T09:17:37.055Z,1.35
2022-12-08T09:20:06.422Z,2.83
2022-12-08T09:22:37.172Z,2.05
2022-12-08T09:25:06.057Z,2.45
2022-12-08T09:27:34.460Z,1.80
2022-12-08T09:30:03.468Z,1.77
2022-12-08T09:32:31.908Z,1.27
2022-12-08T09:35:00.384Z,1.50
2022-12-08T09:37:28.815Z,1.40
2022-12-08T09:39:58.454Z,1.30
2022-12-08T09:42:35.028Z,1.60
2022-12-08T09:45:07.017Z,1.70
2022-12-08T09:47:40.517Z,1.67
2022-12-08T09:50:15.663Z,1.10
2022-12-08T09:52:48.721Z,1.20
2022-12-08T09:55:25.643Z,1.33
2022-12-08T09:58:02.976Z,1.15
2022-12-08T10:00:32.211Z,0.65
2022-12-08T10:03:01.196Z,1.08
2022-12-08T10:05:34.490Z,0.95
2022-12-08T10:08:10.040Z,1.17
2022-12-08T10:10:43.857Z,1.05
2022-12-08T10:13:21.161Z,0.90
2022-12-08T10:15:59.798Z,1.85
2022-12-08T10:18:31.709Z,1.10
2022-12-08T10:21:12.000Z,0.95
2022-12-08T10:23:42.545Z,1.85
2022-12-08T10:26:14.804Z,1.70
2022-12-08T10:28:45.412Z,0.80
2022-12-08T10:31:18.223Z,1.00
2022-12-08T10:33:49.279Z,0.70
2022-12-08T10:36:17.610Z,0.75
2022-12-08T10:38:45.848Z,1.10
2022-12-08T10:41:18.353Z,1.30
2022-12-08T10:46:21.386Z,1.17
2022-12-08T10:48:53.162Z,1.48
2022-12-08T10:51:28.581Z,1.40
2022-12-08T10:53:57.226Z,1.15
2022-12-08T10:56:29.717Z,1.15
2022-12-08T10:59:15.382Z,1.55
2022-12-08T11:01:47.947Z,1.50
2022-12-08T11:04:19.888Z,1.13
2022-12-08T11:06:49.615Z,1.40
2022-12-08T11:09:38.470Z,0.80
2022-12-08T11:12:15.628Z,0.90
2022-12-08T11:14:51.928Z,1.10
2022-12-08T11:17:27.695Z,0.95
2022-12-08T11:20:01.479Z,0.90
2022-12-08T11:22:33.288Z,1.00
2022-12-08T11:25:04.190Z,1.42
2022-12-08T11:27:36.746Z,0.32
2022-12-08T11:32:44.788Z,0.68
2022-12-08T11:35:21.952Z,0.90
2022-12-08T11:37:50.409Z,0.75
2022-12-08T11:40:24.525Z,0.90
2022-12-08T11:43:10.013Z,0.77
2022-12-08T11:45:38.360Z,0.63
2022-12-08T11:48:15.717Z,0.60
2022-12-08T11:50:50.798Z,0.45
2022-12-08T11:53:29.078Z,1.00
2022-12-08T11:56:01.820Z,0.82
2022-12-08T11:58:39.528Z,0.50
2022-12-08T12:01:18.046Z,0.50
2022-12-08T12:03:51.778Z,0.57
2022-12-08T12:06:57.573Z,0.40
2022-12-08T12:09:39.139Z,0.30
2022-12-08T12:12:16.731Z,0.20
2022-12-08T12:15:11.588Z,0.63
2022-12-08T12:17:44.823Z,0.30
2022-12-08T12:20:18.791Z,0.35
2022-12-08T12:22:53.255Z,0.60
2022-12-08T12:25:24.203Z,0.32
2022-12-08T12:27:57.585Z,0.60
2022-12-08T12:30:29.681Z,1.02
2022-12-08T12:33:01.201Z,0.75
2022-12-08T12:35:35.813Z,0.80
2022-12-08T12:38:28.640Z,0.70
2022-12-08T12:43:33.687Z,0.38
2022-12-08T12:46:41.455Z,0.45
2022-12-08T12:49:54.443Z,0.50
2022-12-08T12:52:43.098Z,0.25
2022-12-08T12:55:52.478Z,0.40
2022-12-08T12:58:37.017Z,0.77
2022-12-08T13:01:47.659Z,1.02
2022-12-08T13:04:16.484Z,0.82
2022-12-08T13:06:49.901Z,0.57
2022-12-08T13:09:25.031Z,0.80
2022-12-08T13:11:57.004Z,0.40
2022-12-08T13:14:30.815Z,0.30
2022-12-08T13:17:02.769Z,0.50
2022-12-08T13:19:34.065Z,0.38
2022-12-08T13:22:02.900Z,0.40
2022-12-08T13:24:36.399Z,0.30
2022-12-08T13:27:36.242Z,0.35
2022-12-08T13:30:41.586Z,0.38
2022-12-08T13:33:18.964Z,0.45
2022-12-08T13:35:57.926Z,0.50
2022-12-08T13:38:31.355Z,0.45
2022-12-08T13:41:04.219Z,0.45
2022-12-08T13:43:51.292Z,0.50
2022-12-08T13:54:16.459Z,0.05
2022-12-08T13:56:51.414Z,0.55
2022-12-08T13:58:19.300Z,0.40
2022-12-08T14:00:58.804Z,0.28
2022-12-08T14:03:27.685Z,0.40
2022-12-08T14:06:13.563Z,0.40
2022-12-08T14:09:05.273Z,0.60
2022-12-08T14:11:37.343Z,0.60
2022-12-08T14:16:39.864Z,0.60
2022-12-08T14:19:18.001Z,0.50
2022-12-08T14:21:55.027Z,0.50
2022-12-08T14:24:24.500Z,0.45
2022-12-08T14:26:55.600Z,0.57
2022-12-08T14:29:39.568Z,0.80
2022-12-08T14:32:21.677Z,0.30
2022-12-08T14:34:56.656Z,0.35
2022-12-08T14:37:28.150Z,0.43
2022-12-08T14:40:01.979Z,0.20
2022-12-08T14:42:31.973Z,0.38
2022-12-08T14:45:05.421Z,0.55
2022-12-08T14:47:35.528Z,0.20
2022-12-08T14:50:06.731Z,0.13
2022-12-08T14:52:44.708Z,0.40
2022-12-08T14:55:16.755Z,0.13
2022-12-08T14:57:45.098Z,0.63
2022-12-08T15:00:22.060Z,0.15
2022-12-08T15:02:50.503Z,0.47
2022-12-08T15:05:22.035Z,0.43
2022-12-08T15:07:53.950Z,0.00
2022-12-08T15:10:29.102Z,0.60
2022-12-08T15:13:07.581Z,0.50
2022-12-08T15:15:50.818Z,0.17
2022-12-08T15:18:20.918Z,0.20
2022-12-08T15:20:52.917Z,0.25
2022-12-08T15:23:26.947Z,0.10
2022-12-08T15:25:55.917Z,0.50
2022-12-08T15:28:29.636Z,0.43
2022-12-08T15:31:00.294Z,0.43
2022-12-08T15:33:29.008Z,0.40
2022-12-08T15:35:57.338Z,0.30
2022-12-08T15:38:29.720Z,0.32
2022-12-08T15:40:59.207Z,0.52
2022-12-08T15:43:27.924Z,0.30
2022-12-08T15:45:59.856Z,0.60
2022-12-08T15:48:30.139Z,0.68
2022-12-08T15:50:58.783Z,0.40
2022-12-08T15:53:29.857Z,0.47
2022-12-08T15:56:26.321Z,0.47
2022-12-08T15:58:55.567Z,1.00
2022-12-08T16:01:24.818Z,0.68
2022-12-08T16:04:37.233Z,0.20
2022-12-08T16:07:19.612Z,0.60
2022-12-08T16:09:38.516Z,0.60
2022-12-08T16:12:25.300Z,0.38
2022-12-08T16:17:42.882Z,0.55
2022-12-08T16:20:15.512Z,0.70
2022-12-08T16:22:56.403Z,0.50
2022-12-08T16:25:52.821Z,0.20
2022-12-08T16:28:52.817Z,0.40
2022-12-08T16:31:16.677Z,0.50
2022-12-08T16:33:48.143Z,0.40
2022-12-08T16:36:16.402Z,0.52
2022-12-08T16:38:44.824Z,0.65
2022-12-08T16:41:33.841Z,0.32
2022-12-08T16:44:03.616Z,0.50
2022-12-08T16:46:34.088Z,0.40
2022-12-08T16:49:02.578Z,0.63
2022-12-08T16:51:30.898Z,0.68
2022-12-08T16:54:00.083Z,0.50
2022-12-08T16:56:33.076Z,0.68
2022-12-08T16:59:03.060Z,0.73
2022-12-08T17:01:32.196Z,0.80
2022-12-08T17:04:30.472Z,1.73
2022-12-08T17:06:51.071Z,12.60
2022-12-08T17:09:20.549Z,25.80
2022-12-08T17:11:50.333Z,33.15
2022-12-08T17:14:18.728Z,17.40
2022-12-08T17:16:47.143Z,14.90
2022-12-08T17:19:16.079Z,3.28
2022-12-08T17:21:45.301Z,5.15
2022-12-08T17:24:17.125Z,13.85
2022-12-08T17:26:50.197Z,13.70
2022-12-08T17:29:18.884Z,13.63
2022-12-08T17:31:47.474Z,19.80
2022-12-08T17:34:18.209Z,12.80
2022-12-08T17:36:46.668Z,16.90
2022-12-08T17:39:18.825Z,20.02
2022-12-08T17:44:18.940Z,21.58
2022-12-08T17:46:52.499Z,15.77
2022-12-08T17:49:24.607Z,15.63
2022-12-08T17:51:56.554Z,18.40
2022-12-08T17:54:25.485Z,5.05
2022-12-08T17:56:54.250Z,5.10
2022-12-08T17:59:24.065Z,6.40
2022-12-08T18:01:53.986Z,6.38
2022-12-08T18:04:22.780Z,5.35
2022-12-08T18:06:51.120Z,0.80
2022-12-08T18:09:20.247Z,1.13
2022-12-08T18:11:48.900Z,1.20
2022-12-08T18:14:17.696Z,1.40
2022-12-08T18:16:48.145Z,1.50
2022-12-08T18:19:17.223Z,1.35
2022-12-08T18:21:45.902Z,1.80
2022-12-08T18:24:19.686Z,1.50
2022-12-08T18:26:48.463Z,1.40
2022-12-08T18:29:16.864Z,1.50
2022-12-08T18:31:46.697Z,5.03
2022-12-08T18:34:15.163Z,2.55
2022-12-08T18:36:43.595Z,1.60
2022-12-08T18:39:23.352Z,1.35
2022-12-08T18:41:51.799Z,1.30
2022-12-08T18:44:20.742Z,1.30
2022-12-08T18:46:50.702Z,6.28
2022-12-08T18:49:20.792Z,3.85
2022-12-08T18:51:49.285Z,10.02
2022-12-08T18:54:17.707Z,9.85
2022-12-08T18:56:46.104Z,9.68
2022-12-08T18:59:14.882Z,5.00
2022-12-08T19:01:43.692Z,4.43
2022-12-08T19:04:28.278Z,1.92
2022-12-08T19:06:58.792Z,2.20
2022-12-08T19:09:29.136Z,1.65
2022-12-08T19:11:58.606Z,1.25
2022-12-08T19:14:28.433Z,1.33
2022-12-08T19:16:57.891Z,2.53
2022-12-08T19:19:28.287Z,2.88
2022-12-08T19:21:57.159Z,2.30
2022-12-08T19:24:26.012Z,1.40
2022-12-08T19:26:54.435Z,1.58
2022-12-08T19:29:22.831Z,2.10
2022-12-08T19:31:51.288Z,6.30
2022-12-08T19:34:20.115Z,7.32
2022-12-08T19:36:50.105Z,4.82
2022-12-08T19:39:37.361Z,7.80
2022-12-08T19:42:24.606Z,8.02
2022-12-08T19:44:55.654Z,5.80
2022-12-08T19:47:25.699Z,7.03
2022-12-08T19:49:54.969Z,3.72
2022-12-08T19:52:24.987Z,3.97
2022-12-08T19:54:53.341Z,3.97
2022-12-08T19:57:22.195Z,3.00
2022-12-08T20:00:03.537Z,3.88
2022-12-08T20:02:38.342Z,2.75
2022-12-08T20:05:07.678Z,1.65
2022-12-08T20:07:37.674Z,1.52
2022-12-08T20:10:08.037Z,2.45
2022-12-08T20:12:36.730Z,2.20
2022-12-08T20:15:05.618Z,4.75
2022-12-08T20:17:33.994Z,3.50
2022-12-08T20:20:06.807Z,3.92
2022-12-08T20:22:37.736Z,2.40
2022-12-08T20:25:06.658Z,2.03
2022-12-08T20:27:35.029Z,7.25
2022-12-08T20:30:03.458Z,7.30
2022-12-08T20:32:31.832Z,10.25
2022-12-08T20:35:00.307Z,22.77
2022-12-08T20:37:28.638Z,17.35
2022-12-08T20:39:58.456Z,12.32
2022-12-08T20:42:26.901Z,19.38
2022-12-08T20:44:55.700Z,10.30
2022-12-08T20:47:24.069Z,6.63
2022-12-08T20:49:52.456Z,5.30
2022-12-08T20:52:20.812Z,11.25
2022-12-08T20:54:51.415Z,3.45
2022-12-08T20:57:22.432Z,6.68
2022-12-08T20:59:50.875Z,3.75
2022-12-08T21:02:19.374Z,9.25
2022-12-08T21:04:50.431Z,11.35
2022-12-08T21:07:19.167Z,17.02
2022-12-08T21:09:47.627Z,20.90
2022-12-08T21:12:16.238Z,20.83
2022-12-08T21:14:46.336Z,20.85
2022-12-08T21:17:15.707Z,23.80
2022-12-08T21:19:44.837Z,13.32
2022-12-08T21:22:14.345Z,14.52
2022-12-08T21:24:43.598Z,7.38
2022-12-08T21:27:11.992Z,3.20
2022-12-08T21:29:40.541Z,2.83
2022-12-08T21:32:10.458Z,1.20
2022-12-08T21:34:38.949Z,2.85
2022-12-08T21:37:07.479Z,2.63
2022-12-08T21:39:37.668Z,3.70
2022-12-08T21:42:24.298Z,2.42
2022-12-08T21:44:55.751Z,1.90
2022-12-08T21:47:25.678Z,3.13
2022-12-08T21:49:54.181Z,1.55
2022-12-08T21:52:23.616Z,1.50
2022-12-08T21:54:52.792Z,1.52
2022-12-08T21:57:21.539Z,0.70
2022-12-08T21:59:50.621Z,0.82
2022-12-08T22:02:22.663Z,0.57
2022-12-08T22:07:22.509Z,1.02
2022-12-08T22:09:51.871Z,1.17
2022-12-08T22:12:20.580Z,1.48
2022-12-08T22:14:51.072Z,1.90
2022-12-08T22:17:20.229Z,3.00
2022-12-08T22:19:50.467Z,2.03
2022-12-08T22:22:20.782Z,1.70
2022-12-08T22:24:49.380Z,1.05
2022-12-08T22:27:17.776Z,1.50
2022-12-08T22:29:48.007Z,1.50
2022-12-08T22:32:16.636Z,1.88
2022-12-08T22:34:45.132Z,1.58
2022-12-08T22:37:13.813Z,1.85
2022-12-08T22:39:44.995Z,1.30
2022-12-08T22:42:13.538Z,1.30
2022-12-08T22:44:42.391Z,1.20
2022-12-08T22:47:10.926Z,1.42
2022-12-08T22:49:39.392Z,1.10
2022-12-08T22:52:07.963Z,1.45
2022-12-08T22:54:37.560Z,1.30
2022-12-08T22:57:07.367Z,1.52
2022-12-08T22:59:36.150Z,1.70
2022-12-08T23:02:04.593Z,1.65
2022-12-08T23:04:33.010Z,1.20
2022-12-08T23:07:01.776Z,1.73
2022-12-08T23:09:31.227Z,1.35
2022-12-08T23:11:59.576Z,1.77
2022-12-08T23:14:29.519Z,1.88
2022-12-08T23:16:58.024Z,1.45
2022-12-08T23:19:26.372Z,2.40
2022-12-08T23:21:56.446Z,1.30
2022-12-08T23:24:25.432Z,1.35
2022-12-08T23:26:53.756Z,1.75
2022-12-08T23:29:22.133Z,1.42
2022-12-08T23:31:52.113Z,2.20
2022-12-08T23:34:21.366Z,1.60
2022-12-08T23:36:49.863Z,1.45
2022-12-08T23:39:18.315Z,1.58
2022-12-08T23:41:48.043Z,1.10
2022-12-08T23:44:16.438Z,1.88
2022-12-08T23:46:45.540Z,1.13
2022-12-08T23:49:15.981Z,1.30
2022-12-08T23:51:46.374Z,1.80
2022-12-08T23:54:14.698Z,1.40
2022-12-08T23:56:43.285Z,1.15
2022-12-08T23:59:11.947Z,1.08
